sensor_id;sensor_type;location;lat;lon;timestamp;temperature;humidity
69359;HTU21D;56520;49.066;8.660;2023-04-03T00:00:06;4.47;70.38
69359;HTU21D;56520;49.066;8.660;2023-04-03T00:02:32;4.45;70.00
69359;HTU21D;56520;49.066;8.660;2023-04-03T00:04:57;4.45;70.16
69359;HTU21D;56520;49.066;8.660;2023-04-03T00:07:23;4.44;70.36
69359;HTU21D;56520;49.066;8.660;2023-04-03T00:09:48;4.43;70.39
69359;HTU21D;56520;49.066;8.660;2023-04-03T00:12:13;4.42;70.52
69359;HTU21D;56520;49.066;8.660;2023-04-03T00:14:39;4.42;70.36
69359;HTU21D;56520;49.066;8.660;2023-04-03T00:17:04;4.43;70.55
69359;HTU21D;56520;49.066;8.660;2023-04-03T00:19:30;4.39;70.43
69359;HTU21D;56520;49.066;8.660;2023-04-03T00:21:55;4.38;70.59
69359;HTU21D;56520;49.066;8.660;2023-04-03T00:24:21;4.37;70.60
69359;HTU21D;56520;49.066;8.660;2023-04-03T00:26:46;4.36;70.32
69359;HTU21D;56520;49.066;8.660;2023-04-03T00:29:12;4.34;70.37
69359;HTU21D;56520;49.066;8.660;2023-04-03T00:31:37;4.31;70.45
69359;HTU21D;56520;49.066;8.660;2023-04-03T00:34:03;4.29;70.27
69359;HTU21D;56520;49.066;8.660;2023-04-03T00:36:28;4.27;70.50
69359;HTU21D;56520;49.066;8.660;2023-04-03T00:38:54;4.24;70.52
69359;HTU21D;56520;49.066;8.660;2023-04-03T00:41:19;4.26;70.36
69359;HTU21D;56520;49.066;8.660;2023-04-03T00:43:45;4.23;70.00
69359;HTU21D;56520;49.066;8.660;2023-04-03T00:46:10;4.23;70.04
69359;HTU21D;56520;49.066;8.660;2023-04-03T00:48:40;4.22;70.16
69359;HTU21D;56520;49.066;8.660;2023-04-03T00:51:10;4.22;69.99
69359;HTU21D;56520;49.066;8.660;2023-04-03T00:53:43;4.17;70.70
69359;HTU21D;56520;49.066;8.660;2023-04-03T00:56:12;4.13;70.95
69359;HTU21D;56520;49.066;8.660;2023-04-03T00:58:44;4.08;70.91
69359;HTU21D;56520;49.066;8.660;2023-04-03T01:01:16;4.03;71.07
69359;HTU21D;56520;49.066;8.660;2023-04-03T01:03:42;4.00;71.23
69359;HTU21D;56520;49.066;8.660;2023-04-03T01:06:07;3.97;71.37
69359;HTU21D;56520;49.066;8.660;2023-04-03T01:08:33;3.91;71.32
69359;HTU21D;56520;49.066;8.660;2023-04-03T01:10:59;3.87;71.63
69359;HTU21D;56520;49.066;8.660;2023-04-03T01:13:29;3.84;71.65
69359;HTU21D;56520;49.066;8.660;2023-04-03T01:15:55;3.79;71.72
69359;HTU21D;56520;49.066;8.660;2023-04-03T01:18:23;3.75;71.96
69359;HTU21D;56520;49.066;8.660;2023-04-03T01:26:12;3.69;72.19
69359;HTU21D;56520;49.066;8.660;2023-04-03T01:28:38;3.69;71.74
69359;HTU21D;56520;49.066;8.660;2023-04-03T01:33:32;3.67;71.94
69359;HTU21D;56520;49.066;8.660;2023-04-03T01:35:57;3.64;71.84
69359;HTU21D;56520;49.066;8.660;2023-04-03T01:38:23;3.62;71.99
69359;HTU21D;56520;49.066;8.660;2023-04-03T01:40:48;3.59;72.26
69359;HTU21D;56520;49.066;8.660;2023-04-03T01:43:13;3.58;72.24
69359;HTU21D;56520;49.066;8.660;2023-04-03T01:45:39;3.54;72.29
69359;HTU21D;56520;49.066;8.660;2023-04-03T01:48:05;3.53;72.49
69359;HTU21D;56520;49.066;8.660;2023-04-03T01:50:30;3.48;72.74
69359;HTU21D;56520;49.066;8.660;2023-04-03T01:52:56;3.46;72.86
69359;HTU21D;56520;49.066;8.660;2023-04-03T01:55:21;3.45;72.97
69359;HTU21D;56520;49.066;8.660;2023-04-03T01:57:47;3.44;73.09
69359;HTU21D;56520;49.066;8.660;2023-04-03T02:00:12;3.43;73.12
69359;HTU21D;56520;49.066;8.660;2023-04-03T02:02:38;3.43;73.18
69359;HTU21D;56520;49.066;8.660;2023-04-03T02:05:04;3.42;73.30
69359;HTU21D;56520;49.066;8.660;2023-04-03T02:07:29;3.41;73.24
69359;HTU21D;56520;49.066;8.660;2023-04-03T02:09:55;3.38;73.44
69359;HTU21D;56520;49.066;8.660;2023-04-03T02:12:20;3.36;73.47
69359;HTU21D;56520;49.066;8.660;2023-04-03T02:14:45;3.36;73.59
69359;HTU21D;56520;49.066;8.660;2023-04-03T02:17:11;3.34;73.51
69359;HTU21D;56520;49.066;8.660;2023-04-03T02:19:36;3.32;73.64
69359;HTU21D;56520;49.066;8.660;2023-04-03T02:22:02;3.32;73.72
69359;HTU21D;56520;49.066;8.660;2023-04-03T02:24:28;3.29;73.67
69359;HTU21D;56520;49.066;8.660;2023-04-03T02:26:54;3.27;73.81
69359;HTU21D;56520;49.066;8.660;2023-04-03T02:29:19;3.23;73.93
69359;HTU21D;56520;49.066;8.660;2023-04-03T02:31:45;3.19;74.02
69359;HTU21D;56520;49.066;8.660;2023-04-03T02:34:10;3.16;74.22
69359;HTU21D;56520;49.066;8.660;2023-04-03T02:36:36;3.16;74.18
69359;HTU21D;56520;49.066;8.660;2023-04-03T02:39:02;3.11;74.17
69359;HTU21D;56520;49.066;8.660;2023-04-03T02:41:28;3.08;74.35
69359;HTU21D;56520;49.066;8.660;2023-04-03T02:44:00;3.05;74.38
69359;HTU21D;56520;49.066;8.660;2023-04-03T02:46:26;3.04;74.49
69359;HTU21D;56520;49.066;8.660;2023-04-03T02:48:51;3.02;74.65
69359;HTU21D;56520;49.066;8.660;2023-04-03T02:51:16;3.00;74.85
69359;HTU21D;56520;49.066;8.660;2023-04-03T02:53:42;2.99;75.00
69359;HTU21D;56520;49.066;8.660;2023-04-03T02:56:07;2.95;75.17
69359;HTU21D;56520;49.066;8.660;2023-04-03T02:58:32;2.90;75.11
69359;HTU21D;56520;49.066;8.660;2023-04-03T03:00:58;2.87;75.43
69359;HTU21D;56520;49.066;8.660;2023-04-03T03:03:23;2.86;75.75
69359;HTU21D;56520;49.066;8.660;2023-04-03T03:05:48;2.85;75.83
69359;HTU21D;56520;49.066;8.660;2023-04-03T03:08:14;2.83;76.04
69359;HTU21D;56520;49.066;8.660;2023-04-03T03:10:39;2.83;76.35
69359;HTU21D;56520;49.066;8.660;2023-04-03T03:13:05;2.85;76.31
69359;HTU21D;56520;49.066;8.660;2023-04-03T03:15:30;2.90;76.25
69359;HTU21D;56520;49.066;8.660;2023-04-03T03:17:56;2.96;76.10
69359;HTU21D;56520;49.066;8.660;2023-04-03T03:20:21;2.99;76.03
69359;HTU21D;56520;49.066;8.660;2023-04-03T03:22:46;3.02;76.00
69359;HTU21D;56520;49.066;8.660;2023-04-03T03:25:12;3.04;75.99
69359;HTU21D;56520;49.066;8.660;2023-04-03T03:27:37;3.10;75.91
69359;HTU21D;56520;49.066;8.660;2023-04-03T03:30:03;3.10;76.01
69359;HTU21D;56520;49.066;8.660;2023-04-03T03:32:29;3.11;76.06
69359;HTU21D;56520;49.066;8.660;2023-04-03T03:34:55;3.12;75.95
69359;HTU21D;56520;49.066;8.660;2023-04-03T03:37:20;3.15;75.88
69359;HTU21D;56520;49.066;8.660;2023-04-03T03:39:45;3.19;75.64
69359;HTU21D;56520;49.066;8.660;2023-04-03T03:42:11;3.20;75.60
69359;HTU21D;56520;49.066;8.660;2023-04-03T03:44:36;3.23;75.64
69359;HTU21D;56520;49.066;8.660;2023-04-03T03:47:01;3.23;75.60
69359;HTU21D;56520;49.066;8.660;2023-04-03T03:49:28;3.25;75.46
69359;HTU21D;56520;49.066;8.660;2023-04-03T03:51:53;3.26;75.50
69359;HTU21D;56520;49.066;8.660;2023-04-03T03:54:19;3.27;75.70
69359;HTU21D;56520;49.066;8.660;2023-04-03T03:56:44;3.29;75.34
69359;HTU21D;56520;49.066;8.660;2023-04-03T03:59:11;3.30;75.44
69359;HTU21D;56520;49.066;8.660;2023-04-03T04:01:37;3.31;75.44
69359;HTU21D;56520;49.066;8.660;2023-04-03T04:04:03;3.31;75.44
69359;HTU21D;56520;49.066;8.660;2023-04-03T04:06:28;3.33;75.50
69359;HTU21D;56520;49.066;8.660;2023-04-03T04:08:53;3.34;75.38
69359;HTU21D;56520;49.066;8.660;2023-04-03T04:11:19;3.34;75.09
69359;HTU21D;56520;49.066;8.660;2023-04-03T04:13:44;3.33;75.17
69359;HTU21D;56520;49.066;8.660;2023-04-03T04:16:10;3.34;75.34
69359;HTU21D;56520;49.066;8.660;2023-04-03T04:18:35;3.34;75.21
69359;HTU21D;56520;49.066;8.660;2023-04-03T04:21:01;3.28;75.41
69359;HTU21D;56520;49.066;8.660;2023-04-03T04:23:26;3.17;75.66
69359;HTU21D;56520;49.066;8.660;2023-04-03T04:25:51;3.02;75.96
69359;HTU21D;56520;49.066;8.660;2023-04-03T04:28:17;2.89;76.33
69359;HTU21D;56520;49.066;8.660;2023-04-03T04:30:42;2.81;76.57
69359;HTU21D;56520;49.066;8.660;2023-04-03T04:33:07;2.70;76.94
69359;HTU21D;56520;49.066;8.660;2023-04-03T04:35:33;2.59;77.68
69359;HTU21D;56520;49.066;8.660;2023-04-03T04:37:59;2.52;77.82
69359;HTU21D;56520;49.066;8.660;2023-04-03T04:40:25;2.41;78.17
69359;HTU21D;56520;49.066;8.660;2023-04-03T04:42:50;2.36;78.15
69359;HTU21D;56520;49.066;8.660;2023-04-03T04:45:16;2.30;78.28
69359;HTU21D;56520;49.066;8.660;2023-04-03T04:47:41;2.25;78.11
69359;HTU21D;56520;49.066;8.660;2023-04-03T04:50:07;2.22;77.52
69359;HTU21D;56520;49.066;8.660;2023-04-03T04:52:33;2.16;77.59
69359;HTU21D;56520;49.066;8.660;2023-04-03T04:54:58;2.09;77.95
69359;HTU21D;56520;49.066;8.660;2023-04-03T04:57:23;2.07;78.25
69359;HTU21D;56520;49.066;8.660;2023-04-03T04:59:49;2.07;77.76
69359;HTU21D;56520;49.066;8.660;2023-04-03T05:02:14;2.06;77.76
69359;HTU21D;56520;49.066;8.660;2023-04-03T05:04:40;2.00;78.01
69359;HTU21D;56520;49.066;8.660;2023-04-03T05:07:05;2.00;77.72
69359;HTU21D;56520;49.066;8.660;2023-04-03T05:09:31;1.91;77.91
69359;HTU21D;56520;49.066;8.660;2023-04-03T05:11:56;1.81;78.50
69359;HTU21D;56520;49.066;8.660;2023-04-03T05:14:21;1.77;78.57
69359;HTU21D;56520;49.066;8.660;2023-04-03T05:16:47;1.77;78.30
69359;HTU21D;56520;49.066;8.660;2023-04-03T05:19:12;1.73;78.46
69359;HTU21D;56520;49.066;8.660;2023-04-03T05:21:38;1.75;78.65
69359;HTU21D;56520;49.066;8.660;2023-04-03T05:24:03;1.78;78.40
69359;HTU21D;56520;49.066;8.660;2023-04-03T05:26:30;1.84;78.19
69359;HTU21D;56520;49.066;8.660;2023-04-03T05:28:55;1.90;78.28
69359;HTU21D;56520;49.066;8.660;2023-04-03T05:31:21;1.99;77.41
69359;HTU21D;56520;49.066;8.660;2023-04-03T05:33:46;2.05;77.60
69359;HTU21D;56520;49.066;8.660;2023-04-03T05:36:12;2.11;77.99
69359;HTU21D;56520;49.066;8.660;2023-04-03T05:38:38;2.17;77.93
69359;HTU21D;56520;49.066;8.660;2023-04-03T05:41:03;2.23;77.94
69359;HTU21D;56520;49.066;8.660;2023-04-03T05:43:28;2.27;77.66
69359;HTU21D;56520;49.066;8.660;2023-04-03T05:45:54;2.34;78.01
69359;HTU21D;56520;49.066;8.660;2023-04-03T05:48:19;2.41;77.96
69359;HTU21D;56520;49.066;8.660;2023-04-03T05:50:46;2.47;77.24
69359;HTU21D;56520;49.066;8.660;2023-04-03T05:53:21;2.51;77.49
69359;HTU21D;56520;49.066;8.660;2023-04-03T05:55:47;2.55;77.05
69359;HTU21D;56520;49.066;8.660;2023-04-03T05:58:13;2.60;77.47
69359;HTU21D;56520;49.066;8.660;2023-04-03T06:00:38;2.66;77.11
69359;HTU21D;56520;49.066;8.660;2023-04-03T06:03:04;2.72;76.51
69359;HTU21D;56520;49.066;8.660;2023-04-03T06:05:29;2.73;76.50
69359;HTU21D;56520;49.066;8.660;2023-04-03T06:07:55;2.79;77.08
69359;HTU21D;56520;49.066;8.660;2023-04-03T06:10:20;2.85;76.61
69359;HTU21D;56520;49.066;8.660;2023-04-03T06:12:46;2.89;75.96
69359;HTU21D;56520;49.066;8.660;2023-04-03T06:15:11;2.93;76.15
69359;HTU21D;56520;49.066;8.660;2023-04-03T06:17:37;2.96;76.28
69359;HTU21D;56520;49.066;8.660;2023-04-03T06:20:03;3.01;76.28
69359;HTU21D;56520;49.066;8.660;2023-04-03T06:22:29;3.06;76.15
69359;HTU21D;56520;49.066;8.660;2023-04-03T06:24:55;3.13;76.05
69359;HTU21D;56520;49.066;8.660;2023-04-03T06:27:21;3.17;75.85
69359;HTU21D;56520;49.066;8.660;2023-04-03T06:29:46;3.23;75.78
69359;HTU21D;56520;49.066;8.660;2023-04-03T06:32:12;3.29;75.93
69359;HTU21D;56520;49.066;8.660;2023-04-03T06:34:37;3.40;76.12
69359;HTU21D;56520;49.066;8.660;2023-04-03T06:37:03;3.47;75.28
69359;HTU21D;56520;49.066;8.660;2023-04-03T06:39:28;3.56;74.65
69359;HTU21D;56520;49.066;8.660;2023-04-03T06:41:54;3.61;74.79
69359;HTU21D;56520;49.066;8.660;2023-04-03T06:44:20;3.68;74.55
69359;HTU21D;56520;49.066;8.660;2023-04-03T06:46:45;3.74;74.42
69359;HTU21D;56520;49.066;8.660;2023-04-03T06:49:11;3.80;74.35
69359;HTU21D;56520;49.066;8.660;2023-04-03T06:51:37;3.88;74.35
69359;HTU21D;56520;49.066;8.660;2023-04-03T06:54:05;3.93;73.48
69359;HTU21D;56520;49.066;8.660;2023-04-03T06:56:31;3.92;73.49
69359;HTU21D;56520;49.066;8.660;2023-04-03T06:58:56;3.97;74.25
69359;HTU21D;56520;49.066;8.660;2023-04-03T07:01:25;4.03;74.15
69359;HTU21D;56520;49.066;8.660;2023-04-03T07:03:52;4.09;73.54
69359;HTU21D;56520;49.066;8.660;2023-04-03T07:06:18;4.15;73.91
69359;HTU21D;56520;49.066;8.660;2023-04-03T07:08:44;4.14;73.07
69359;HTU21D;56520;49.066;8.660;2023-04-03T07:11:10;4.07;73.28
69359;HTU21D;56520;49.066;8.660;2023-04-03T07:13:37;4.06;74.12
69359;HTU21D;56520;49.066;8.660;2023-04-03T07:16:03;4.04;74.53
69359;HTU21D;56520;49.066;8.660;2023-04-03T07:18:30;4.00;74.46
69359;HTU21D;56520;49.066;8.660;2023-04-03T07:20:55;3.99;74.96
69359;HTU21D;56520;49.066;8.660;2023-04-03T07:23:21;4.01;75.42
69359;HTU21D;56520;49.066;8.660;2023-04-03T07:25:47;4.04;75.98
69359;HTU21D;56520;49.066;8.660;2023-04-03T07:28:13;4.16;75.50
69359;HTU21D;56520;49.066;8.660;2023-04-03T07:30:47;4.26;76.00
69359;HTU21D;56520;49.066;8.660;2023-04-03T07:33:14;4.33;74.80
69359;HTU21D;56520;49.066;8.660;2023-04-03T07:35:41;4.35;74.73
69359;HTU21D;56520;49.066;8.660;2023-04-03T07:38:06;4.45;75.49
69359;HTU21D;56520;49.066;8.660;2023-04-03T07:40:32;4.59;75.44
69359;HTU21D;56520;49.066;8.660;2023-04-03T07:42:58;4.66;75.05
69359;HTU21D;56520;49.066;8.660;2023-04-03T07:45:24;4.73;74.87
69359;HTU21D;56520;49.066;8.660;2023-04-03T07:47:50;4.84;74.99
69359;HTU21D;56520;49.066;8.660;2023-04-03T07:50:16;4.94;73.09
69359;HTU21D;56520;49.066;8.660;2023-04-03T07:52:41;5.02;72.85
69359;HTU21D;56520;49.066;8.660;2023-04-03T07:55:07;5.05;71.32
69359;HTU21D;56520;49.066;8.660;2023-04-03T07:57:33;5.06;72.91
69359;HTU21D;56520;49.066;8.660;2023-04-03T07:59:58;5.09;71.61
69359;HTU21D;56520;49.066;8.660;2023-04-03T08:02:23;5.04;71.13
69359;HTU21D;56520;49.066;8.660;2023-04-03T08:04:49;5.19;71.88
69359;HTU21D;56520;49.066;8.660;2023-04-03T08:07:15;5.41;71.22
69359;HTU21D;56520;49.066;8.660;2023-04-03T08:09:40;5.51;70.57
69359;HTU21D;56520;49.066;8.660;2023-04-03T08:12:06;5.55;70.00
69359;HTU21D;56520;49.066;8.660;2023-04-03T08:14:32;5.57;70.44
69359;HTU21D;56520;49.066;8.660;2023-04-03T08:17:00;5.66;70.85
69359;HTU21D;56520;49.066;8.660;2023-04-03T08:19:26;5.80;69.05
69359;HTU21D;56520;49.066;8.660;2023-04-03T08:21:51;5.87;68.43
69359;HTU21D;56520;49.066;8.660;2023-04-03T08:24:17;5.94;68.63
69359;HTU21D;56520;49.066;8.660;2023-04-03T08:26:42;6.00;69.64
69359;HTU21D;56520;49.066;8.660;2023-04-03T08:29:08;6.12;69.00
69359;HTU21D;56520;49.066;8.660;2023-04-03T08:31:33;6.28;67.54
69359;HTU21D;56520;49.066;8.660;2023-04-03T08:33:59;6.30;67.29
69359;HTU21D;56520;49.066;8.660;2023-04-03T08:36:26;6.38;65.59
69359;HTU21D;56520;49.066;8.660;2023-04-03T08:38:53;6.49;65.27
69359;HTU21D;56520;49.066;8.660;2023-04-03T08:52:52;6.25;64.01
69359;HTU21D;56520;49.066;8.660;2023-04-03T08:55:23;6.19;64.66
69359;HTU21D;56520;49.066;8.660;2023-04-03T08:57:58;6.51;64.85
69359;HTU21D;56520;49.066;8.660;2023-04-03T09:00:28;7.29;62.21
69359;HTU21D;56520;49.066;8.660;2023-04-03T09:02:56;7.90;59.56
69359;HTU21D;56520;49.066;8.660;2023-04-03T09:13:49;8.95;51.44
69359;HTU21D;56520;49.066;8.660;2023-04-03T09:16:53;8.52;53.67
69359;HTU21D;56520;49.066;8.660;2023-04-03T09:21:51;8.63;53.30
69359;HTU21D;56520;49.066;8.660;2023-04-03T09:24:17;8.51;54.70
69359;HTU21D;56520;49.066;8.660;2023-04-03T09:26:53;8.80;54.52
69359;HTU21D;56520;49.066;8.660;2023-04-03T09:29:22;9.35;52.39
69359;HTU21D;56520;49.066;8.660;2023-04-03T09:31:50;9.07;52.87
69359;HTU21D;56520;49.066;8.660;2023-04-03T09:34:23;8.86;53.14
69359;HTU21D;56520;49.066;8.660;2023-04-03T09:36:52;8.94;52.53
69359;HTU21D;56520;49.066;8.660;2023-04-03T09:39:24;9.26;52.37
69359;HTU21D;56520;49.066;8.660;2023-04-03T09:42:16;9.14;51.66
69359;HTU21D;56520;49.066;8.660;2023-04-03T09:44:56;9.02;52.62
69359;HTU21D;56520;49.066;8.660;2023-04-03T09:47:26;8.98;52.23
69359;HTU21D;56520;49.066;8.660;2023-04-03T09:50:28;8.70;51.51
69359;HTU21D;56520;49.066;8.660;2023-04-03T09:52:54;8.43;52.75
69359;HTU21D;56520;49.066;8.660;2023-04-03T09:55:21;8.88;55.82
69359;HTU21D;56520;49.066;8.660;2023-04-03T09:57:52;9.29;52.94
69359;HTU21D;56520;49.066;8.660;2023-04-03T10:00:24;9.46;48.06
69359;HTU21D;56520;49.066;8.660;2023-04-03T10:02:53;9.70;48.94
69359;HTU21D;56520;49.066;8.660;2023-04-03T10:05:38;9.50;48.79
69359;HTU21D;56520;49.066;8.660;2023-04-03T10:10:43;9.95;50.42
69359;HTU21D;56520;49.066;8.660;2023-04-03T10:15:43;10.85;47.10
69359;HTU21D;56520;49.066;8.660;2023-04-03T10:18:44;11.47;46.93
69359;HTU21D;56520;49.066;8.660;2023-04-03T10:27:00;12.51;46.51
69359;HTU21D;56520;49.066;8.660;2023-04-03T10:37:54;12.00;45.06
69359;HTU21D;56520;49.066;8.660;2023-04-03T10:43:36;11.90;44.03
69359;HTU21D;56520;49.066;8.660;2023-04-03T10:46:09;11.43;46.70
69359;HTU21D;56520;49.066;8.660;2023-04-03T10:54:25;10.55;46.02
69359;HTU21D;56520;49.066;8.660;2023-04-03T10:56:57;10.60;46.01
69359;HTU21D;56520;49.066;8.660;2023-04-03T10:59:40;10.53;47.22
69359;HTU21D;56520;49.066;8.660;2023-04-03T11:04:39;10.05;46.54
69359;HTU21D;56520;49.066;8.660;2023-04-03T11:07:27;9.89;48.88
69359;HTU21D;56520;49.066;8.660;2023-04-03T11:10:00;9.62;47.11
69359;HTU21D;56520;49.066;8.660;2023-04-03T11:12:36;9.54;47.83
69359;HTU21D;56520;49.066;8.660;2023-04-03T11:15:03;9.51;48.88
69359;HTU21D;56520;49.066;8.660;2023-04-03T11:17:40;9.51;47.72
69359;HTU21D;56520;49.066;8.660;2023-04-03T11:22:56;9.66;48.28
69359;HTU21D;56520;49.066;8.660;2023-04-03T11:25:25;9.68;49.06
69359;HTU21D;56520;49.066;8.660;2023-04-03T11:27:58;9.54;48.19
69359;HTU21D;56520;49.066;8.660;2023-04-03T11:35:54;10.24;49.21
69359;HTU21D;56520;49.066;8.660;2023-04-03T11:38:24;11.02;47.76
69359;HTU21D;56520;49.066;8.660;2023-04-03T11:40:53;11.38;46.92
69359;HTU21D;56520;49.066;8.660;2023-04-03T11:53:42;10.52;47.89
69359;HTU21D;56520;49.066;8.660;2023-04-03T12:01:48;10.60;44.68
69359;HTU21D;56520;49.066;8.660;2023-04-03T12:04:15;10.15;47.19
69359;HTU21D;56520;49.066;8.660;2023-04-03T12:09:32;9.41;47.73
69359;HTU21D;56520;49.066;8.660;2023-04-03T12:12:00;9.60;48.42
69359;HTU21D;56520;49.066;8.660;2023-04-03T12:14:27;10.01;50.05
69359;HTU21D;56520;49.066;8.660;2023-04-03T12:16:54;10.16;48.44
69359;HTU21D;56520;49.066;8.660;2023-04-03T12:19:37;10.13;47.09
69359;HTU21D;56520;49.066;8.660;2023-04-03T12:22:12;9.99;46.86
69359;HTU21D;56520;49.066;8.660;2023-04-03T12:24:40;9.90;49.05
69359;HTU21D;56520;49.066;8.660;2023-04-03T12:27:22;9.95;47.44
69359;HTU21D;56520;49.066;8.660;2023-04-03T12:40:56;9.55;48.94
69359;HTU21D;56520;49.066;8.660;2023-04-03T12:48:47;9.45;48.17
69359;HTU21D;56520;49.066;8.660;2023-04-03T12:51:14;9.68;48.93
69359;HTU21D;56520;49.066;8.660;2023-04-03T12:53:40;9.84;46.74
69359;HTU21D;56520;49.066;8.660;2023-04-03T12:56:26;9.86;45.12
69359;HTU21D;56520;49.066;8.660;2023-04-03T12:58:54;9.86;46.01
69359;HTU21D;56520;49.066;8.660;2023-04-03T13:01:26;10.01;44.23
69359;HTU21D;56520;49.066;8.660;2023-04-03T13:03:52;10.16;46.79
69359;HTU21D;56520;49.066;8.660;2023-04-03T13:06:37;10.53;45.93
69359;HTU21D;56520;49.066;8.660;2023-04-03T13:09:03;10.58;43.93
69359;HTU21D;56520;49.066;8.660;2023-04-03T13:11:36;10.51;45.83
69359;HTU21D;56520;49.066;8.660;2023-04-03T13:14:12;10.30;44.88
69359;HTU21D;56520;49.066;8.660;2023-04-03T13:16:40;10.23;44.35
69359;HTU21D;56520;49.066;8.660;2023-04-03T13:19:17;10.09;44.92
69359;HTU21D;56520;49.066;8.660;2023-04-03T13:21:43;10.06;45.92
69359;HTU21D;56520;49.066;8.660;2023-04-03T13:24:10;10.13;45.51
69359;HTU21D;56520;49.066;8.660;2023-04-03T13:26:36;10.10;44.87
69359;HTU21D;56520;49.066;8.660;2023-04-03T13:29:06;10.05;46.30
69359;HTU21D;56520;49.066;8.660;2023-04-03T13:31:36;10.08;46.62
69359;HTU21D;56520;49.066;8.660;2023-04-03T13:36:34;9.89;46.28
69359;HTU21D;56520;49.066;8.660;2023-04-03T13:43:56;9.70;46.02
69359;HTU21D;56520;49.066;8.660;2023-04-03T13:46:27;9.61;43.84
69359;HTU21D;56520;49.066;8.660;2023-04-03T13:48:54;9.42;45.54
69359;HTU21D;56520;49.066;8.660;2023-04-03T13:51:29;9.50;45.86
69359;HTU21D;56520;49.066;8.660;2023-04-03T13:53:56;9.63;46.64
69359;HTU21D;56520;49.066;8.660;2023-04-03T13:56:38;9.84;44.50
69359;HTU21D;56520;49.066;8.660;2023-04-03T13:59:21;10.63;46.10
69359;HTU21D;56520;49.066;8.660;2023-04-03T14:02:29;10.53;44.83
69359;HTU21D;56520;49.066;8.660;2023-04-03T14:04:57;10.55;44.49
69359;HTU21D;56520;49.066;8.660;2023-04-03T14:07:25;10.38;44.98
69359;HTU21D;56520;49.066;8.660;2023-04-03T14:09:51;10.08;46.70
69359;HTU21D;56520;49.066;8.660;2023-04-03T14:12:33;9.92;46.07
69359;HTU21D;56520;49.066;8.660;2023-04-03T14:15:07;9.94;46.47
69359;HTU21D;56520;49.066;8.660;2023-04-03T14:17:37;9.95;46.60
69359;HTU21D;56520;49.066;8.660;2023-04-03T14:20:03;9.82;46.46
69359;HTU21D;56520;49.066;8.660;2023-04-03T14:22:31;9.75;47.12
69359;HTU21D;56520;49.066;8.660;2023-04-03T14:24:57;9.60;46.02
69359;HTU21D;56520;49.066;8.660;2023-04-03T14:27:29;9.47;46.24
69359;HTU21D;56520;49.066;8.660;2023-04-03T14:29:55;9.44;45.80
69359;HTU21D;56520;49.066;8.660;2023-04-03T14:32:22;9.47;45.29
69359;HTU21D;56520;49.066;8.660;2023-04-03T14:34:49;9.49;45.97
69359;HTU21D;56520;49.066;8.660;2023-04-03T14:37:18;9.47;46.51
69359;HTU21D;56520;49.066;8.660;2023-04-03T14:39:46;9.42;46.43
69359;HTU21D;56520;49.066;8.660;2023-04-03T14:42:13;9.31;47.10
69359;HTU21D;56520;49.066;8.660;2023-04-03T14:44:39;9.20;47.35
69359;HTU21D;56520;49.066;8.660;2023-04-03T14:47:08;8.98;46.61
69359;HTU21D;56520;49.066;8.660;2023-04-03T14:49:34;8.71;47.71
69359;HTU21D;56520;49.066;8.660;2023-04-03T14:52:00;8.62;48.02
69359;HTU21D;56520;49.066;8.660;2023-04-03T14:54:26;8.63;47.96
69359;HTU21D;56520;49.066;8.660;2023-04-03T14:56:53;9.05;46.86
69359;HTU21D;56520;49.066;8.660;2023-04-03T14:59:19;9.56;46.81
69359;HTU21D;56520;49.066;8.660;2023-04-03T15:01:46;10.06;45.60
69359;HTU21D;56520;49.066;8.660;2023-04-03T15:04:14;10.50;43.58
69359;HTU21D;56520;49.066;8.660;2023-04-03T15:06:41;10.62;42.48
69359;HTU21D;56520;49.066;8.660;2023-04-03T15:09:34;10.48;42.33
69359;HTU21D;56520;49.066;8.660;2023-04-03T15:11:59;10.26;43.81
69359;HTU21D;56520;49.066;8.660;2023-04-03T15:14:25;10.30;42.88
69359;HTU21D;56520;49.066;8.660;2023-04-03T15:16:50;10.37;43.97
69359;HTU21D;56520;49.066;8.660;2023-04-03T15:19:15;10.23;40.37
69359;HTU21D;56520;49.066;8.660;2023-04-03T15:21:41;10.04;40.20
69359;HTU21D;56520;49.066;8.660;2023-04-03T15:24:08;10.08;41.39
69359;HTU21D;56520;49.066;8.660;2023-04-03T15:26:34;10.18;41.53
69359;HTU21D;56520;49.066;8.660;2023-04-03T15:29:00;10.21;41.71
69359;HTU21D;56520;49.066;8.660;2023-04-03T15:31:25;10.20;42.10
69359;HTU21D;56520;49.066;8.660;2023-04-03T15:33:51;9.85;42.97
69359;HTU21D;56520;49.066;8.660;2023-04-03T15:36:16;9.41;42.47
69359;HTU21D;56520;49.066;8.660;2023-04-03T15:38:41;8.94;45.92
69359;HTU21D;56520;49.066;8.660;2023-04-03T15:41:07;8.73;46.28
69359;HTU21D;56520;49.066;8.660;2023-04-03T15:43:32;8.80;45.32
69359;HTU21D;56520;49.066;8.660;2023-04-03T15:46:01;8.86;44.27
69359;HTU21D;56520;49.066;8.660;2023-04-03T15:48:27;8.87;45.00
69359;HTU21D;56520;49.066;8.660;2023-04-03T15:50:53;8.96;45.74
69359;HTU21D;56520;49.066;8.660;2023-04-03T15:53:18;9.09;44.97
69359;HTU21D;56520;49.066;8.660;2023-04-03T15:55:44;9.31;45.50
69359;HTU21D;56520;49.066;8.660;2023-04-03T15:58:09;9.60;44.39
69359;HTU21D;56520;49.066;8.660;2023-04-03T16:00:36;9.63;43.71
69359;HTU21D;56520;49.066;8.660;2023-04-03T16:03:07;9.41;44.03
69359;HTU21D;56520;49.066;8.660;2023-04-03T16:05:35;9.03;44.97
69359;HTU21D;56520;49.066;8.660;2023-04-03T16:08:01;8.60;45.77
69359;HTU21D;56520;49.066;8.660;2023-04-03T16:10:27;8.22;46.17
69359;HTU21D;56520;49.066;8.660;2023-04-03T16:12:53;8.13;47.37
69359;HTU21D;56520;49.066;8.660;2023-04-03T16:15:18;8.13;48.29
69359;HTU21D;56520;49.066;8.660;2023-04-03T16:17:44;8.24;46.11
69359;HTU21D;56520;49.066;8.660;2023-04-03T16:20:11;8.31;46.67
69359;HTU21D;56520;49.066;8.660;2023-04-03T16:22:38;8.41;47.55
69359;HTU21D;56520;49.066;8.660;2023-04-03T16:25:05;8.56;46.93
69359;HTU21D;56520;49.066;8.660;2023-04-03T16:27:31;8.56;44.89
69359;HTU21D;56520;49.066;8.660;2023-04-03T16:29:57;8.39;45.85
69359;HTU21D;56520;49.066;8.660;2023-04-03T16:32:25;8.26;45.50
69359;HTU21D;56520;49.066;8.660;2023-04-03T16:34:51;8.02;46.13
69359;HTU21D;56520;49.066;8.660;2023-04-03T16:37:17;7.81;47.35
69359;HTU21D;56520;49.066;8.660;2023-04-03T16:39:42;7.70;48.62
69359;HTU21D;56520;49.066;8.660;2023-04-03T16:42:08;7.74;48.92
69359;HTU21D;56520;49.066;8.660;2023-04-03T16:44:35;7.86;48.73
69359;HTU21D;56520;49.066;8.660;2023-04-03T16:47:01;8.01;48.82
69359;HTU21D;56520;49.066;8.660;2023-04-03T16:49:26;8.11;48.86
69359;HTU21D;56520;49.066;8.660;2023-04-03T16:51:57;8.04;49.21
69359;HTU21D;56520;49.066;8.660;2023-04-03T16:54:22;7.94;48.20
69359;HTU21D;56520;49.066;8.660;2023-04-03T16:56:48;7.76;48.36
69359;HTU21D;56520;49.066;8.660;2023-04-03T16:59:13;7.68;48.25
69359;HTU21D;56520;49.066;8.660;2023-04-03T17:01:39;7.59;48.13
69359;HTU21D;56520;49.066;8.660;2023-04-03T17:04:05;7.54;48.32
69359;HTU21D;56520;49.066;8.660;2023-04-03T17:06:31;7.42;49.26
69359;HTU21D;56520;49.066;8.660;2023-04-03T17:08:56;7.27;49.77
69359;HTU21D;56520;49.066;8.660;2023-04-03T17:11:21;7.12;49.37
69359;HTU21D;56520;49.066;8.660;2023-04-03T17:13:47;7.00;49.77
69359;HTU21D;56520;49.066;8.660;2023-04-03T17:16:14;6.90;51.34
69359;HTU21D;56520;49.066;8.660;2023-04-03T17:18:40;6.79;51.54
69359;HTU21D;56520;49.066;8.660;2023-04-03T17:21:06;6.69;50.75
69359;HTU21D;56520;49.066;8.660;2023-04-03T17:23:32;6.59;51.54